createdAt,value
2019-04-04T00:01:49.606Z,9.13
2019-04-04T00:06:51.899Z,10.03
2019-04-04T00:11:54.212Z,11.40
2019-04-04T00:17:05.508Z,11.37
2019-04-04T00:22:07.792Z,11.93
2019-04-04T00:27:12.992Z,11.77
2019-04-04T00:32:14.074Z,11.33
2019-04-04T00:37:16.332Z,11.53
2019-04-04T00:42:18.693Z,12.07
2019-04-04T00:47:20.974Z,11.63
2019-04-04T00:52:23.616Z,14.50
2019-04-04T00:57:25.971Z,17.20
2019-04-04T01:02:28.331Z,12.20
2019-04-04T01:07:30.675Z,12.70
2019-04-04T01:12:33.347Z,13.67
2019-04-04T01:17:35.742Z,13.53
2019-04-04T01:22:38.112Z,14.10
2019-04-04T01:27:40.388Z,14.30
2019-04-04T01:32:42.666Z,16.23
2019-04-04T01:37:44.996Z,14.93
2019-04-04T01:42:47.269Z,13.48
2019-04-04T01:47:49.551Z,12.83
2019-04-04T01:52:51.835Z,12.77
2019-04-04T01:57:54.101Z,12.23
2019-04-04T02:02:56.389Z,12.20
2019-04-04T02:08:01.010Z,12.33
2019-04-04T02:13:03.322Z,12.57
2019-04-04T02:18:06.361Z,15.73
2019-04-04T02:23:08.699Z,15.77
2019-04-04T02:28:11.004Z,15.17
2019-04-04T02:33:13.375Z,15.13
2019-04-04T02:38:15.767Z,12.77
2019-04-04T02:43:18.097Z,13.63
2019-04-04T02:48:23.191Z,13.70
2019-04-04T02:53:24.344Z,13.73
2019-04-04T02:58:26.701Z,16.63
2019-04-04T03:03:29.156Z,14.27
2019-04-04T03:08:31.427Z,11.47
2019-04-04T03:13:33.792Z,18.40
2019-04-04T03:18:37.378Z,9.60
2019-04-04T03:23:40.116Z,9.80
2019-04-04T03:28:42.450Z,10.03
2019-04-04T03:33:44.793Z,10.20
2019-04-04T03:38:47.465Z,10.50
2019-04-04T03:43:49.809Z,14.70
2019-04-04T03:48:52.205Z,10.53
2019-04-04T03:53:56.156Z,11.20
2019-04-04T03:59:00.120Z,12.47
2019-04-04T04:04:04.101Z,15.03
2019-04-04T04:09:06.542Z,15.37
2019-04-04T04:14:08.842Z,13.83
2019-04-04T04:19:11.111Z,12.80
2019-04-04T04:24:13.380Z,13.50
2019-04-04T04:29:15.677Z,14.33
2019-04-04T04:34:17.944Z,13.80
2019-04-04T04:39:20.610Z,13.80
2019-04-04T04:44:22.896Z,15.43
2019-04-04T04:49:25.229Z,13.77
2019-04-04T04:54:27.620Z,13.30
2019-04-04T04:59:29.915Z,14.00
2019-04-04T05:04:32.464Z,13.27
2019-04-04T05:09:34.744Z,12.60
2019-04-04T05:14:37.105Z,15.17
2019-04-04T05:19:39.421Z,14.50
2019-04-04T05:24:41.759Z,13.95
2019-04-04T05:29:44.993Z,14.50
2019-04-04T05:34:48.045Z,16.07
2019-04-04T05:39:51.348Z,21.27
2019-04-04T05:44:54.529Z,15.60
2019-04-04T05:49:57.167Z,17.63
2019-04-04T05:54:59.458Z,17.00
2019-04-04T06:00:01.842Z,16.90
2019-04-04T06:05:05.456Z,21.83
2019-04-04T06:10:08.116Z,22.47
2019-04-04T06:15:10.584Z,27.70
2019-04-04T06:20:15.075Z,21.53
2019-04-04T06:25:17.353Z,30.80
2019-04-04T06:30:20.141Z,19.33
2019-04-04T06:35:23.184Z,22.60
2019-04-04T06:40:25.534Z,21.57
2019-04-04T06:45:29.677Z,29.00
2019-04-04T06:50:31.986Z,21.87
2019-04-04T06:55:39.775Z,21.40
2019-04-04T07:00:38.484Z,20.37
2019-04-04T07:05:40.786Z,21.30
2019-04-04T07:10:43.106Z,20.67
2019-04-04T07:15:46.987Z,21.27
2019-04-04T07:20:49.539Z,21.80
2019-04-04T07:25:53.480Z,18.23
2019-04-04T07:30:56.115Z,22.53
2019-04-04T07:35:58.731Z,18.03
2019-04-04T07:41:01.011Z,19.70
2019-04-04T07:46:15.710Z,15.87
2019-04-04T07:51:07.414Z,11.17
2019-04-04T07:56:09.665Z,10.33
2019-04-04T08:01:11.959Z,11.27
2019-04-04T08:06:14.317Z,9.07
2019-04-04T08:11:16.621Z,7.30
2019-04-04T08:16:18.904Z,6.53
2019-04-04T08:21:21.271Z,6.87
2019-04-04T08:26:23.561Z,5.90
2019-04-04T08:31:25.876Z,7.20
2019-04-04T08:41:39.685Z,4.83
2019-04-04T08:46:42.064Z,4.40
2019-04-04T08:51:44.361Z,5.43
2019-04-04T08:56:46.701Z,5.23
2019-04-04T09:01:49.047Z,5.20
2019-04-04T09:06:51.331Z,4.93
2019-04-04T09:11:53.711Z,5.27
2019-04-04T09:16:56.011Z,4.97
2019-04-04T09:21:58.671Z,5.00
2019-04-04T09:27:01.013Z,4.67
2019-04-04T09:32:03.401Z,4.20
2019-04-04T09:37:08.653Z,4.80
2019-04-04T09:42:09.861Z,4.40
2019-04-04T09:47:12.139Z,4.53
2019-04-04T09:52:14.406Z,3.73
2019-04-04T09:57:17.060Z,3.50
2019-04-04T10:02:19.421Z,3.43
2019-04-04T10:07:21.694Z,3.97
2019-04-04T10:12:23.954Z,3.63
2019-04-04T10:17:26.236Z,4.07
2019-04-04T10:22:28.501Z,2.93
2019-04-04T10:27:30.789Z,3.50
2019-04-04T10:32:33.082Z,3.17
2019-04-04T10:37:35.407Z,4.33
2019-04-04T10:42:37.681Z,3.30
2019-04-04T10:47:40.059Z,3.60
2019-04-04T10:52:42.684Z,2.60
2019-04-04T10:57:44.976Z,2.80
2019-04-04T11:02:47.344Z,2.60
2019-04-04T11:07:49.652Z,2.80
2019-04-04T11:12:52.409Z,2.43
2019-04-04T11:17:55.155Z,1.83
2019-04-04T11:22:57.452Z,1.80
2019-04-04T11:27:59.744Z,1.70
2019-04-04T11:33:02.430Z,2.03
2019-04-04T11:38:04.712Z,1.90
2019-04-04T11:43:07.525Z,1.70
2019-04-04T11:48:09.804Z,2.10
2019-04-04T11:53:12.160Z,2.63
2019-04-04T11:58:14.426Z,1.40
2019-04-04T12:03:16.730Z,2.33
2019-04-04T12:08:19.002Z,3.43
2019-04-04T12:13:21.277Z,2.50
2019-04-04T12:18:23.701Z,3.17
2019-04-04T12:23:26.048Z,2.90
2019-04-04T12:28:28.328Z,2.50
2019-04-04T12:33:30.637Z,3.33
2019-04-04T12:38:33.334Z,4.27
2019-04-04T12:43:35.618Z,2.33
2019-04-04T12:48:37.974Z,3.13
2019-04-04T12:53:40.342Z,1.50
2019-04-04T12:58:42.684Z,2.87
2019-04-04T13:03:44.950Z,1.60
2019-04-04T13:08:47.290Z,1.53
2019-04-04T13:13:49.922Z,3.67
2019-04-04T13:18:52.255Z,2.10
2019-04-04T13:23:54.886Z,1.20
2019-04-04T13:28:57.231Z,1.20
2019-04-04T13:33:59.792Z,2.23
2019-04-04T13:39:02.214Z,1.12
2019-04-04T13:44:04.952Z,1.50
2019-04-04T13:49:07.222Z,1.60
2019-04-04T13:54:09.522Z,2.00
2019-04-04T13:59:11.912Z,1.93
2019-04-04T14:04:14.211Z,2.53
2019-04-04T14:09:16.496Z,3.13
2019-04-04T14:14:18.804Z,2.70
2019-04-04T14:19:21.099Z,2.77
2019-04-04T14:24:23.380Z,2.23
2019-04-04T14:29:27.727Z,2.30
2019-04-04T14:34:29.687Z,3.40
2019-04-04T14:39:31.970Z,3.07
2019-04-04T14:44:35.886Z,5.10
2019-04-04T14:49:38.318Z,3.30
2019-04-04T14:54:40.626Z,4.07
2019-04-04T14:59:43.134Z,1.90
2019-04-04T15:04:45.430Z,3.73
2019-04-04T15:09:47.808Z,3.00
2019-04-04T15:14:50.191Z,1.67
2019-04-04T15:19:52.461Z,1.80
2019-04-04T15:24:54.885Z,1.60
2019-04-04T15:29:57.136Z,2.20
2019-04-04T15:34:59.572Z,2.00
2019-04-04T15:40:01.906Z,2.73
2019-04-04T15:45:05.286Z,1.70
2019-04-04T15:50:07.657Z,2.53
2019-04-04T15:55:10.046Z,3.03
2019-04-04T16:00:12.572Z,2.87
2019-04-04T16:05:15.234Z,2.30
2019-04-04T16:10:17.524Z,2.23
2019-04-04T16:15:20.087Z,2.83
2019-04-04T16:20:22.495Z,3.50
2019-04-04T16:25:24.836Z,3.90
2019-04-04T16:30:28.144Z,2.87
2019-04-04T16:35:30.432Z,3.77
2019-04-04T16:40:32.700Z,3.60
2019-04-04T16:45:35.105Z,4.03
2019-04-04T16:50:37.456Z,15.83
2019-04-04T16:55:39.877Z,8.80
2019-04-04T17:00:42.226Z,10.07
2019-04-04T17:05:44.649Z,3.60
2019-04-04T17:10:47.110Z,3.53
2019-04-04T17:15:49.494Z,3.83
2019-04-04T17:20:51.830Z,5.37
2019-04-04T17:25:54.213Z,3.30
2019-04-04T17:30:56.700Z,5.60
2019-04-04T17:35:59.624Z,5.83
2019-04-04T17:41:02.202Z,7.23
2019-04-04T17:46:05.432Z,5.40
2019-04-04T17:51:08.023Z,6.13
2019-04-04T17:56:10.296Z,7.03
2019-04-04T18:01:13.304Z,8.27
2019-04-04T18:06:15.717Z,4.33
2019-04-04T18:11:18.165Z,4.83
2019-04-04T18:16:20.465Z,8.90
2019-04-04T18:21:23.174Z,5.10
2019-04-04T18:26:25.616Z,5.17
2019-04-04T18:31:27.975Z,5.77
2019-04-04T18:36:30.304Z,4.97
2019-04-04T18:41:32.568Z,5.27
2019-04-04T18:46:34.887Z,5.33
2019-04-04T18:51:37.849Z,5.30
2019-04-04T18:56:40.299Z,4.67
2019-04-04T19:01:42.662Z,5.53
2019-04-04T19:06:44.980Z,6.10
2019-04-04T19:11:47.335Z,6.33
2019-04-04T19:16:49.773Z,6.23
2019-04-04T19:21:52.151Z,7.10
2019-04-04T19:26:54.623Z,6.13
2019-04-04T19:31:56.966Z,6.63
2019-04-04T19:36:59.387Z,6.70
2019-04-04T19:42:04.758Z,7.50
2019-04-04T19:47:06.254Z,6.60
2019-04-04T19:52:08.685Z,9.60
2019-04-04T19:57:11.001Z,6.78
2019-04-04T20:02:13.440Z,8.90
2019-04-04T20:07:15.794Z,7.80
2019-04-04T20:12:18.778Z,7.40
2019-04-04T20:17:21.116Z,7.53
2019-04-04T20:22:23.446Z,7.30
2019-04-04T20:27:25.881Z,9.83
2019-04-04T20:32:28.254Z,7.63
2019-04-04T20:37:30.612Z,7.67
2019-04-04T20:42:32.982Z,7.00
2019-04-04T20:47:35.330Z,8.03
2019-04-04T20:52:37.999Z,7.03
2019-04-04T20:57:40.334Z,7.23
2019-04-04T21:02:42.695Z,7.10
2019-04-04T21:07:45.082Z,7.97
2019-04-04T21:12:47.456Z,7.73
2019-04-04T21:17:49.861Z,6.57
2019-04-04T21:22:52.124Z,7.37
2019-04-04T21:27:54.424Z,8.23
2019-04-04T21:32:56.741Z,6.90
2019-04-04T21:37:59.022Z,8.90
2019-04-04T21:43:01.316Z,11.20
2019-04-04T21:48:03.912Z,13.48
2019-04-04T21:53:06.207Z,8.40
2019-04-04T21:58:08.828Z,12.00
2019-04-04T22:03:11.155Z,9.47
2019-04-04T22:08:13.530Z,10.43
2019-04-04T22:13:15.856Z,8.40
2019-04-04T22:18:18.165Z,10.17
2019-04-04T22:23:20.490Z,10.53
2019-04-04T22:28:22.761Z,9.30
2019-04-04T22:33:25.033Z,10.33
2019-04-04T22:38:27.326Z,9.97
2019-04-04T22:43:29.621Z,10.47
2019-04-04T22:48:31.886Z,10.07
2019-04-04T22:53:34.181Z,12.37
2019-04-04T22:58:36.464Z,13.50
2019-04-04T23:03:38.746Z,13.03
2019-04-04T23:08:41.101Z,11.93
2019-04-04T23:13:43.807Z,12.57
2019-04-04T23:18:46.092Z,11.10
2019-04-04T23:23:48.919Z,12.90
2019-04-04T23:28:51.203Z,13.40
2019-04-04T23:33:53.513Z,13.87
2019-04-04T23:38:55.779Z,15.90
2019-04-04T23:43:58.049Z,14.43
2019-04-04T23:49:00.345Z,13.87
2019-04-04T23:54:02.724Z,14.07
2019-04-04T23:59:05.097Z,12.93
